sensor_id;sensor_type;location;lat;lon;timestamp;pressure;altitude;pressure_sealevel;temperature;humidity
6200;BME280;3133;43.214;27.906;2023-04-10T00:02:14;100874.34;;;7.15;100.00
6200;BME280;3133;43.214;27.906;2023-04-10T00:04:41;100893.19;;;7.51;100.00
6200;BME280;3133;43.214;27.906;2023-04-10T00:07:09;100853.03;;;7.29;100.00
6200;BME280;3133;43.214;27.906;2023-04-10T00:09:36;100858.47;;;7.43;100.00
6200;BME280;3133;43.214;27.906;2023-04-10T00:12:03;100875.13;;;7.55;100.00
6200;BME280;3133;43.214;27.906;2023-04-10T00:14:30;100886.59;;;7.68;100.00
6200;BME280;3133;43.214;27.906;2023-04-10T00:16:57;100886.53;;;7.65;100.00
6200;BME280;3133;43.214;27.906;2023-04-10T00:19:24;100882.38;;;7.73;100.00
6200;BME280;3133;43.214;27.906;2023-04-10T00:21:51;100881.59;;;7.80;100.00
6200;BME280;3133;43.214;27.906;2023-04-10T00:24:19;100881.66;;;7.82;100.00
6200;BME280;3133;43.214;27.906;2023-04-10T00:26:46;100878.81;;;7.69;100.00
6200;BME280;3133;43.214;27.906;2023-04-10T00:29:13;100874.31;;;7.58;100.00
6200;BME280;3133;43.214;27.906;2023-04-10T00:31:40;100854.84;;;7.35;100.00
6200;BME280;3133;43.214;27.906;2023-04-10T00:34:07;100871.47;;;7.44;100.00
6200;BME280;3133;43.214;27.906;2023-04-10T00:36:34;100830.41;;;7.24;100.00
6200;BME280;3133;43.214;27.906;2023-04-10T00:39:01;100873.09;;;7.39;100.00
6200;BME280;3133;43.214;27.906;2023-04-10T00:41:29;100849.38;;;7.20;100.00
6200;BME280;3133;43.214;27.906;2023-04-10T00:43:56;100853.13;;;7.37;100.00
6200;BME280;3133;43.214;27.906;2023-04-10T00:46:24;100860.63;;;7.22;100.00
6200;BME280;3133;43.214;27.906;2023-04-10T00:48:52;100821.16;;;6.91;100.00
6200;BME280;3133;43.214;27.906;2023-04-10T00:51:20;100850.41;;;7.28;100.00
6200;BME280;3133;43.214;27.906;2023-04-10T00:53:47;100845.31;;;7.34;100.00
6200;BME280;3133;43.214;27.906;2023-04-10T00:56:15;100848.66;;;7.28;100.00
6200;BME280;3133;43.214;27.906;2023-04-10T00:58:44;100843.66;;;7.37;100.00
6200;BME280;3133;43.214;27.906;2023-04-10T01:01:11;100835.59;;;7.22;100.00
6200;BME280;3133;43.214;27.906;2023-04-10T01:03:38;100839.44;;;7.42;100.00
6200;BME280;3133;43.214;27.906;2023-04-10T01:06:12;100837.75;;;7.47;100.00
6200;BME280;3133;43.214;27.906;2023-04-10T01:08:47;100836.13;;;7.51;100.00
6200;BME280;3133;43.214;27.906;2023-04-10T01:11:32;100834.84;;;7.28;100.00
6200;BME280;3133;43.214;27.906;2023-04-10T01:14:11;100837.75;;;7.46;100.00
6200;BME280;3133;43.214;27.906;2023-04-10T01:16:46;100841.75;;;7.27;100.00
6200;BME280;3133;43.214;27.906;2023-04-10T01:19:25;100766.19;;;6.63;100.00
6200;BME280;3133;43.214;27.906;2023-04-10T01:21:59;100820.63;;;7.08;100.00
6200;BME280;3133;43.214;27.906;2023-04-10T01:24:47;100845.44;;;6.95;100.00
6200;BME280;3133;43.214;27.906;2023-04-10T01:27:29;100845.38;;;6.92;100.00
6200;BME280;3133;43.214;27.906;2023-04-10T01:30:03;100828.41;;;7.08;100.00
6200;BME280;3133;43.214;27.906;2023-04-10T01:32:33;100820.84;;;7.20;100.00
6200;BME280;3133;43.214;27.906;2023-04-10T01:35:05;100802.59;;;7.15;100.00
6200;BME280;3133;43.214;27.906;2023-04-10T01:37:36;100833.28;;;7.39;100.00
6200;BME280;3133;43.214;27.906;2023-04-10T01:40:08;100840.25;;;6.93;100.00
6200;BME280;3133;43.214;27.906;2023-04-10T01:42:40;100789.94;;;6.85;100.00
6200;BME280;3133;43.214;27.906;2023-04-10T01:45:14;100834.00;;;7.30;100.00
6200;BME280;3133;43.214;27.906;2023-04-10T01:47:43;100838.16;;;7.21;100.00
6200;BME280;3133;43.214;27.906;2023-04-10T01:50:10;100801.88;;;6.76;100.00
6200;BME280;3133;43.214;27.906;2023-04-10T01:52:38;100830.22;;;7.12;100.00
6200;BME280;3133;43.214;27.906;2023-04-10T01:55:06;100826.19;;;7.27;100.00
6200;BME280;3133;43.214;27.906;2023-04-10T01:57:33;100821.16;;;7.36;100.00
6200;BME280;3133;43.214;27.906;2023-04-10T02:00:01;100827.16;;;7.34;100.00
6200;BME280;3133;43.214;27.906;2023-04-10T02:02:31;100822.91;;;7.39;100.00
6200;BME280;3133;43.214;27.906;2023-04-10T02:04:58;100796.69;;;7.21;100.00
6200;BME280;3133;43.214;27.906;2023-04-10T02:07:29;100817.00;;;7.46;100.00
6200;BME280;3133;43.214;27.906;2023-04-10T02:09:58;100822.16;;;7.44;100.00
6200;BME280;3133;43.214;27.906;2023-04-10T02:12:30;100818.66;;;7.41;100.00
6200;BME280;3133;43.214;27.906;2023-04-10T02:14:59;100805.97;;;7.57;100.00
6200;BME280;3133;43.214;27.906;2023-04-10T02:17:28;100812.22;;;7.68;100.00
6200;BME280;3133;43.214;27.906;2023-04-10T02:19:57;100814.88;;;7.74;100.00
6200;BME280;3133;43.214;27.906;2023-04-10T02:22:25;100809.84;;;7.84;100.00
6200;BME280;3133;43.214;27.906;2023-04-10T02:24:53;100816.06;;;7.95;100.00
6200;BME280;3133;43.214;27.906;2023-04-10T02:27:27;100802.31;;;8.00;100.00
6200;BME280;3133;43.214;27.906;2023-04-10T02:29:54;100805.81;;;8.02;100.00
6200;BME280;3133;43.214;27.906;2023-04-10T02:32:21;100815.22;;;7.97;100.00
6200;BME280;3133;43.214;27.906;2023-04-10T02:34:48;100811.81;;;7.98;100.00
6200;BME280;3133;43.214;27.906;2023-04-10T02:37:16;100794.50;;;7.99;100.00
6200;BME280;3133;43.214;27.906;2023-04-10T02:39:43;100815.28;;;8.00;100.00
6200;BME280;3133;43.214;27.906;2023-04-10T02:42:10;100799.59;;;7.93;100.00
6200;BME280;3133;43.214;27.906;2023-04-10T02:44:37;100817.00;;;7.98;100.00
6200;BME280;3133;43.214;27.906;2023-04-10T02:47:05;100808.09;;;7.84;100.00
6200;BME280;3133;43.214;27.906;2023-04-10T02:49:32;100806.06;;;7.65;100.00
6200;BME280;3133;43.214;27.906;2023-04-10T02:52:00;100794.75;;;7.60;100.00
6200;BME280;3133;43.214;27.906;2023-04-10T02:54:28;100808.88;;;7.77;100.00
6200;BME280;3133;43.214;27.906;2023-04-10T02:56:56;100793.88;;;7.59;100.00
6200;BME280;3133;43.214;27.906;2023-04-10T02:59:23;100768.69;;;7.52;100.00
6200;BME280;3133;43.214;27.906;2023-04-10T03:01:50;100798.91;;;7.50;100.00
6200;BME280;3133;43.214;27.906;2023-04-10T03:04:17;100786.66;;;7.42;100.00
6200;BME280;3133;43.214;27.906;2023-04-10T03:06:44;100791.50;;;7.22;100.00
6200;BME280;3133;43.214;27.906;2023-04-10T03:09:11;100800.25;;;7.29;100.00
6200;BME280;3133;43.214;27.906;2023-04-10T03:11:39;100781.03;;;7.16;100.00
6200;BME280;3133;43.214;27.906;2023-04-10T03:14:07;100801.50;;;7.01;100.00
6200;BME280;3133;43.214;27.906;2023-04-10T03:16:35;100799.81;;;7.05;100.00
6200;BME280;3133;43.214;27.906;2023-04-10T03:19:02;100787.69;;;7.02;100.00
6200;BME280;3133;43.214;27.906;2023-04-10T03:21:29;100774.00;;;6.64;100.00
6200;BME280;3133;43.214;27.906;2023-04-10T03:23:56;100791.47;;;6.74;100.00
6200;BME280;3133;43.214;27.906;2023-04-10T03:26:23;100786.34;;;6.77;100.00
6200;BME280;3133;43.214;27.906;2023-04-10T03:28:51;100789.31;;;6.95;100.00
6200;BME280;3133;43.214;27.906;2023-04-10T03:31:18;100779.69;;;6.91;100.00
6200;BME280;3133;43.214;27.906;2023-04-10T03:33:45;100783.16;;;6.90;100.00
6200;BME280;3133;43.214;27.906;2023-04-10T03:36:11;100770.56;;;7.10;100.00
6200;BME280;3133;43.214;27.906;2023-04-10T03:38:38;100760.91;;;7.03;100.00
6200;BME280;3133;43.214;27.906;2023-04-10T03:41:06;100775.06;;;7.22;100.00
6200;BME280;3133;43.214;27.906;2023-04-10T03:43:33;100762.22;;;7.28;100.00
6200;BME280;3133;43.214;27.906;2023-04-10T03:46:01;100771.13;;;7.43;100.00
6200;BME280;3133;43.214;27.906;2023-04-10T03:48:28;100767.94;;;7.59;100.00
6200;BME280;3133;43.214;27.906;2023-04-10T03:50:56;100768.09;;;7.68;100.00
6200;BME280;3133;43.214;27.906;2023-04-10T03:53:23;100771.69;;;7.80;100.00
6200;BME280;3133;43.214;27.906;2023-04-10T03:55:50;100768.31;;;7.84;100.00
6200;BME280;3133;43.214;27.906;2023-04-10T03:58:17;100771.81;;;7.86;100.00
6200;BME280;3133;43.214;27.906;2023-04-10T04:00:44;100780.09;;;7.63;100.00
6200;BME280;3133;43.214;27.906;2023-04-10T04:03:12;100776.47;;;7.52;100.00
6200;BME280;3133;43.214;27.906;2023-04-10T04:05:40;100772.41;;;7.69;100.00
6200;BME280;3133;43.214;27.906;2023-04-10T04:08:06;100792.19;;;7.61;100.00
6200;BME280;3133;43.214;27.906;2023-04-10T04:10:33;100774.19;;;7.72;100.00
6200;BME280;3133;43.214;27.906;2023-04-10T04:13:00;100757.81;;;7.78;100.00
6200;BME280;3133;43.214;27.906;2023-04-10T04:15:27;100791.06;;;8.01;100.00
6200;BME280;3133;43.214;27.906;2023-04-10T04:17:54;100777.97;;;7.94;100.00
6200;BME280;3133;43.214;27.906;2023-04-10T04:20:22;100785.03;;;8.04;100.00
6200;BME280;3133;43.214;27.906;2023-04-10T04:22:49;100769.28;;;7.92;100.00
6200;BME280;3133;43.214;27.906;2023-04-10T04:25:16;100751.16;;;7.95;100.00
6200;BME280;3133;43.214;27.906;2023-04-10T04:27:44;100786.00;;;8.10;100.00
6200;BME280;3133;43.214;27.906;2023-04-10T04:30:11;100785.50;;;8.32;100.00
6200;BME280;3133;43.214;27.906;2023-04-10T04:32:38;100794.38;;;8.49;100.00
6200;BME280;3133;43.214;27.906;2023-04-10T04:35:05;100797.19;;;8.68;100.00
6200;BME280;3133;43.214;27.906;2023-04-10T04:37:34;100795.59;;;8.79;100.00
6200;BME280;3133;43.214;27.906;2023-04-10T04:40:01;100802.44;;;8.72;100.00
6200;BME280;3133;43.214;27.906;2023-04-10T04:42:28;100795.63;;;8.82;100.00
6200;BME280;3133;43.214;27.906;2023-04-10T04:44:55;100797.47;;;8.93;100.00
6200;BME280;3133;43.214;27.906;2023-04-10T04:47:22;100792.38;;;9.01;100.00
6200;BME280;3133;43.214;27.906;2023-04-10T04:49:49;100789.66;;;8.93;100.00
6200;BME280;3133;43.214;27.906;2023-04-10T04:52:16;100784.78;;;8.45;100.00
6200;BME280;3133;43.214;27.906;2023-04-10T04:54:44;100791.09;;;8.66;100.00
6200;BME280;3133;43.214;27.906;2023-04-10T04:57:11;100794.63;;;8.69;100.00
6200;BME280;3133;43.214;27.906;2023-04-10T04:59:38;100794.50;;;8.62;100.00
6200;BME280;3133;43.214;27.906;2023-04-10T05:02:05;100787.41;;;8.45;100.00
6200;BME280;3133;43.214;27.906;2023-04-10T05:04:32;100793.56;;;8.55;100.00
6200;BME280;3133;43.214;27.906;2023-04-10T05:06:59;100765.66;;;8.39;100.00
6200;BME280;3133;43.214;27.906;2023-04-10T05:09:26;100799.69;;;8.60;100.00
6200;BME280;3133;43.214;27.906;2023-04-10T05:11:54;100804.94;;;8.63;100.00
6200;BME280;3133;43.214;27.906;2023-04-10T05:14:21;100793.53;;;8.52;100.00
6200;BME280;3133;43.214;27.906;2023-04-10T05:16:48;100797.03;;;8.54;100.00
6200;BME280;3133;43.214;27.906;2023-04-10T05:19:15;100795.06;;;8.38;100.00
6200;BME280;3133;43.214;27.906;2023-04-10T05:21:42;100791.84;;;8.56;100.00
6200;BME280;3133;43.214;27.906;2023-04-10T05:24:09;100794.50;;;8.62;100.00
6200;BME280;3133;43.214;27.906;2023-04-10T05:26:36;100799.00;;;8.72;100.00
6200;BME280;3133;43.214;27.906;2023-04-10T05:29:04;100777.19;;;8.61;100.00
6200;BME280;3133;43.214;27.906;2023-04-10T05:31:31;100783.47;;;8.79;100.00
6200;BME280;3133;43.214;27.906;2023-04-10T05:33:58;100799.22;;;8.94;100.00
6200;BME280;3133;43.214;27.906;2023-04-10T05:36:25;100806.22;;;8.98;100.00
6200;BME280;3133;43.214;27.906;2023-04-10T05:38:52;100811.69;;;9.22;100.00
6200;BME280;3133;43.214;27.906;2023-04-10T05:41:18;100803.09;;;9.30;100.00
6200;BME280;3133;43.214;27.906;2023-04-10T05:43:46;100805.00;;;9.49;100.00
6200;BME280;3133;43.214;27.906;2023-04-10T05:46:14;100794.59;;;9.52;100.00
6200;BME280;3133;43.214;27.906;2023-04-10T05:48:41;100814.69;;;9.66;100.00
6200;BME280;3133;43.214;27.906;2023-04-10T05:51:08;100787.66;;;9.52;100.00
6200;BME280;3133;43.214;27.906;2023-04-10T05:53:35;100819.06;;;9.73;100.00
6200;BME280;3133;43.214;27.906;2023-04-10T05:56:02;100772.94;;;9.56;100.00
6200;BME280;3133;43.214;27.906;2023-04-10T05:58:29;100823.59;;;9.97;100.00
6200;BME280;3133;43.214;27.906;2023-04-10T06:00:56;100817.63;;;10.10;100.00
6200;BME280;3133;43.214;27.906;2023-04-10T06:03:24;100791.50;;;9.99;100.00
6200;BME280;3133;43.214;27.906;2023-04-10T06:05:54;100821.91;;;10.05;100.00
6200;BME280;3133;43.214;27.906;2023-04-10T06:08:23;100812.34;;;10.01;100.00
6200;BME280;3133;43.214;27.906;2023-04-10T06:10:51;100819.44;;;10.16;100.00
6200;BME280;3133;43.214;27.906;2023-04-10T06:13:18;100821.19;;;10.20;100.00
6200;BME280;3133;43.214;27.906;2023-04-10T06:15:45;100823.03;;;10.34;100.00
6200;BME280;3133;43.214;27.906;2023-04-10T06:18:11;100823.91;;;10.44;100.00
6200;BME280;3133;43.214;27.906;2023-04-10T06:20:44;100813.50;;;10.39;100.00
6200;BME280;3133;43.214;27.906;2023-04-10T06:23:12;100803.03;;;10.35;100.00
6200;BME280;3133;43.214;27.906;2023-04-10T06:25:40;100831.69;;;10.30;100.00
6200;BME280;3133;43.214;27.906;2023-04-10T06:28:06;100835.16;;;10.34;100.00
6200;BME280;3133;43.214;27.906;2023-04-10T06:30:33;100840.38;;;10.32;100.00
6200;BME280;3133;43.214;27.906;2023-04-10T06:33:01;100847.41;;;10.47;100.00
6200;BME280;3133;43.214;27.906;2023-04-10T06:35:28;100844.78;;;10.44;100.00
6200;BME280;3133;43.214;27.906;2023-04-10T06:37:57;100842.19;;;10.48;100.00
6200;BME280;3133;43.214;27.906;2023-04-10T06:40:24;100830.91;;;10.51;100.00
6200;BME280;3133;43.214;27.906;2023-04-10T06:42:50;100823.91;;;10.38;100.00
6200;BME280;3133;43.214;27.906;2023-04-10T06:45:17;100848.25;;;10.44;100.00
6200;BME280;3133;43.214;27.906;2023-04-10T06:47:45;100832.53;;;10.29;100.00
6200;BME280;3133;43.214;27.906;2023-04-10T06:50:12;100838.72;;;10.45;100.00
6200;BME280;3133;43.214;27.906;2023-04-10T06:52:39;100797.75;;;10.23;100.00
6200;BME280;3133;43.214;27.906;2023-04-10T06:55:08;100848.38;;;10.62;100.00
6200;BME280;3133;43.214;27.906;2023-04-10T06:57:35;100847.53;;;10.69;100.00
6200;BME280;3133;43.214;27.906;2023-04-10T07:00:02;100857.03;;;10.57;100.00
6200;BME280;3133;43.214;27.906;2023-04-10T07:02:29;100833.53;;;10.51;100.00
6200;BME280;3133;43.214;27.906;2023-04-10T07:04:56;100848.31;;;10.55;100.00
6200;BME280;3133;43.214;27.906;2023-04-10T07:07:22;100845.72;;;10.55;100.00
6200;BME280;3133;43.214;27.906;2023-04-10T07:09:49;100851.00;;;10.70;100.00
6200;BME280;3133;43.214;27.906;2023-04-10T07:12:18;100826.59;;;10.51;100.00
6200;BME280;3133;43.214;27.906;2023-04-10T07:14:44;100851.06;;;10.80;100.00
6200;BME280;3133;43.214;27.906;2023-04-10T07:17:11;100854.56;;;10.87;100.00
6200;BME280;3133;43.214;27.906;2023-04-10T07:19:38;100853.72;;;10.94;100.00
6200;BME280;3133;43.214;27.906;2023-04-10T07:22:05;100841.56;;;11.02;100.00
6200;BME280;3133;43.214;27.906;2023-04-10T07:24:32;100852.94;;;11.19;100.00
6200;BME280;3133;43.214;27.906;2023-04-10T07:26:59;100845.13;;;11.22;100.00
6200;BME280;3133;43.214;27.906;2023-04-10T07:29:28;100842.50;;;11.25;100.00
6200;BME280;3133;43.214;27.906;2023-04-10T07:31:54;100832.94;;;11.26;100.00
6200;BME280;3133;43.214;27.906;2023-04-10T07:34:21;100858.22;;;11.43;100.00
6200;BME280;3133;43.214;27.906;2023-04-10T07:36:50;100857.34;;;11.41;100.00
6200;BME280;3133;43.214;27.906;2023-04-10T07:39:17;100806.78;;;11.05;100.00
6200;BME280;3133;43.214;27.906;2023-04-10T07:41:44;100802.47;;;11.19;100.00
6200;BME280;3133;43.214;27.906;2023-04-10T07:44:10;100825.16;;;11.56;100.00
6200;BME280;3133;43.214;27.906;2023-04-10T07:46:39;100812.09;;;11.59;100.00
6200;BME280;3133;43.214;27.906;2023-04-10T07:49:05;100667.63;;;10.80;100.00
6200;BME280;3133;43.214;27.906;2023-04-10T07:51:33;100844.38;;;11.87;100.00
6200;BME280;3133;43.214;27.906;2023-04-10T07:54:02;100840.00;;;11.84;100.00
6200;BME280;3133;43.214;27.906;2023-04-10T07:56:29;100840.00;;;11.86;100.00
6200;BME280;3133;43.214;27.906;2023-04-10T07:58:58;100805.13;;;11.56;100.00
6200;BME280;3133;43.214;27.906;2023-04-10T08:01:25;100810.41;;;11.67;100.00
6200;BME280;3133;43.214;27.906;2023-04-10T08:04:15;100784.25;;;11.55;100.00
6200;BME280;3133;43.214;27.906;2023-04-10T08:06:42;100822.56;;;11.88;100.00
6200;BME280;3133;43.214;27.906;2023-04-10T08:09:09;100826.06;;;11.87;100.00
6200;BME280;3133;43.214;27.906;2023-04-10T08:11:36;100763.38;;;11.69;100.00
6200;BME280;3133;43.214;27.906;2023-04-10T08:14:03;100800.81;;;11.92;100.00
6200;BME280;3133;43.214;27.906;2023-04-10T08:16:32;100816.47;;;12.04;100.00
6200;BME280;3133;43.214;27.906;2023-04-10T08:19:00;100811.22;;;12.11;100.00
6200;BME280;3133;43.214;27.906;2023-04-10T08:21:29;100809.47;;;12.27;100.00
6200;BME280;3133;43.214;27.906;2023-04-10T08:23:58;100785.09;;;12.10;100.00
6200;BME280;3133;43.214;27.906;2023-04-10T08:26:27;100806.00;;;12.07;100.00
6200;BME280;3133;43.214;27.906;2023-04-10T08:28:55;100809.47;;;12.13;100.00
6200;BME280;3133;43.214;27.906;2023-04-10T08:31:23;100731.09;;;12.00;100.00
6200;BME280;3133;43.214;27.906;2023-04-10T08:33:51;100806.84;;;12.27;100.00
6200;BME280;3133;43.214;27.906;2023-04-10T08:36:18;100748.50;;;12.07;100.00
6200;BME280;3133;43.214;27.906;2023-04-10T08:38:46;100791.16;;;12.22;100.00
6200;BME280;3133;43.214;27.906;2023-04-10T08:41:14;100791.19;;;12.21;100.00
6200;BME280;3133;43.214;27.906;2023-04-10T08:43:41;100600.63;;;11.06;100.00
6200;BME280;3133;43.214;27.906;2023-04-10T08:46:10;100800.78;;;12.14;100.00
6200;BME280;3133;43.214;27.906;2023-04-10T08:48:40;100794.66;;;12.26;100.00
6200;BME280;3133;43.214;27.906;2023-04-10T08:51:13;100788.56;;;12.18;100.00
6200;BME280;3133;43.214;27.906;2023-04-10T08:53:50;100681.53;;;11.70;100.00
6200;BME280;3133;43.214;27.906;2023-04-10T08:56:20;100718.06;;;11.91;100.00
6200;BME280;3133;43.214;27.906;2023-04-10T08:58:50;100758.06;;;12.26;100.00
6200;BME280;3133;43.214;27.906;2023-04-10T09:01:19;100773.69;;;12.43;100.00
6200;BME280;3133;43.214;27.906;2023-04-10T09:03:47;100771.94;;;12.45;100.00
6200;BME280;3133;43.214;27.906;2023-04-10T09:06:14;100751.03;;;12.36;100.00
6200;BME280;3133;43.214;27.906;2023-04-10T09:08:41;100699.72;;;12.03;100.00
6200;BME280;3133;43.214;27.906;2023-04-10T09:11:15;100773.72;;;12.37;100.00
6200;BME280;3133;43.214;27.906;2023-04-10T09:13:50;100731.91;;;12.20;100.00
6200;BME280;3133;43.214;27.906;2023-04-10T09:16:31;100761.44;;;12.48;100.00
6200;BME280;3133;43.214;27.906;2023-04-10T09:19:00;100671.84;;;12.06;100.00
6200;BME280;3133;43.214;27.906;2023-04-10T09:21:29;100743.13;;;12.49;100.00
6200;BME280;3133;43.214;27.906;2023-04-10T09:24:00;100684.84;;;12.15;100.00
6200;BME280;3133;43.214;27.906;2023-04-10T09:26:29;100752.72;;;12.53;100.00
6200;BME280;3133;43.214;27.906;2023-04-10T09:28:58;100729.31;;;12.18;100.00
6200;BME280;3133;43.214;27.906;2023-04-10T09:31:30;100697.09;;;12.09;100.00
6200;BME280;3133;43.214;27.906;2023-04-10T09:34:16;100728.38;;;12.36;100.00
6200;BME280;3133;43.214;27.906;2023-04-10T09:36:44;100731.81;;;12.44;100.00
6200;BME280;3133;43.214;27.906;2023-04-10T09:39:18;100730.91;;;12.51;100.00
6200;BME280;3133;43.214;27.906;2023-04-10T09:41:51;100713.47;;;12.53;100.00
6200;BME280;3133;43.214;27.906;2023-04-10T09:44:28;100723.03;;;12.60;100.00
6200;BME280;3133;43.214;27.906;2023-04-10T09:46:56;100672.59;;;12.34;100.00
6200;BME280;3133;43.214;27.906;2023-04-10T09:49:22;100721.16;;;12.83;100.00
6200;BME280;3133;43.214;27.906;2023-04-10T09:51:49;100729.88;;;12.85;100.00
6200;BME280;3133;43.214;27.906;2023-04-10T09:54:16;100724.59;;;12.91;100.00
6200;BME280;3133;43.214;27.906;2023-04-10T09:56:44;100683.84;;;12.50;100.00
6200;BME280;3133;43.214;27.906;2023-04-10T09:59:16;100641.19;;;12.37;100.00
6200;BME280;3133;43.214;27.906;2023-04-10T10:01:44;100714.13;;;12.91;100.00
6200;BME280;3133;43.214;27.906;2023-04-10T10:04:13;100610.72;;;12.31;100.00
6200;BME280;3133;43.214;27.906;2023-04-10T10:06:41;100717.63;;;12.87;100.00
6200;BME280;3133;43.214;27.906;2023-04-10T10:09:09;100589.03;;;12.10;100.00
6200;BME280;3133;43.214;27.906;2023-04-10T10:11:37;100642.91;;;12.43;100.00
6200;BME280;3133;43.214;27.906;2023-04-10T10:14:11;100633.34;;;12.37;100.00
6200;BME280;3133;43.214;27.906;2023-04-10T10:16:42;100700.16;;;12.92;100.00
6200;BME280;3133;43.214;27.906;2023-04-10T10:19:18;100694.88;;;12.98;100.00
6200;BME280;3133;43.214;27.906;2023-04-10T10:21:49;100618.50;;;12.39;100.00
6200;BME280;3133;43.214;27.906;2023-04-10T10:24:18;100707.97;;;12.95;100.00
6200;BME280;3133;43.214;27.906;2023-04-10T10:26:46;100637.59;;;12.56;100.00
6200;BME280;3133;43.214;27.906;2023-04-10T10:29:15;100648.03;;;12.62;100.00
6200;BME280;3133;43.214;27.906;2023-04-10T10:31:45;100592.41;;;12.31;100.00
6200;BME280;3133;43.214;27.906;2023-04-10T10:34:14;100690.59;;;12.90;100.00
6200;BME280;3133;43.214;27.906;2023-04-10T10:36:43;100554.16;;;12.14;100.00
6200;BME280;3133;43.214;27.906;2023-04-10T10:39:29;100686.25;;;12.84;100.00
6200;BME280;3133;43.214;27.906;2023-04-10T10:42:04;100683.59;;;12.89;100.00
6200;BME280;3133;43.214;27.906;2023-04-10T10:44:40;100605.41;;;12.44;100.00
6200;BME280;3133;43.214;27.906;2023-04-10T10:47:21;100667.97;;;12.81;100.00
6200;BME280;3133;43.214;27.906;2023-04-10T10:49:53;100663.63;;;12.77;100.00
6200;BME280;3133;43.214;27.906;2023-04-10T10:52:41;100571.50;;;12.35;100.00
6200;BME280;3133;43.214;27.906;2023-04-10T10:55:27;100654.75;;;12.96;100.00
6200;BME280;3133;43.214;27.906;2023-04-10T10:57:57;100647.75;;;12.98;100.00
6200;BME280;3133;43.214;27.906;2023-04-10T11:00:25;100652.97;;;13.00;100.00
6200;BME280;3133;43.214;27.906;2023-04-10T11:03:26;100597.31;;;12.81;100.00
6200;BME280;3133;43.214;27.906;2023-04-10T11:05:55;100529.56;;;12.42;100.00
6200;BME280;3133;43.214;27.906;2023-04-10T11:08:35;100637.16;;;13.20;100.00
6200;BME280;3133;43.214;27.906;2023-04-10T11:11:05;100641.53;;;13.18;100.00
6200;BME280;3133;43.214;27.906;2023-04-10T11:13:36;100589.41;;;12.84;100.00
6200;BME280;3133;43.214;27.906;2023-04-10T11:16:05;100468.75;;;12.16;100.00
6200;BME280;3133;43.214;27.906;2023-04-10T11:19:02;100633.59;;;13.27;100.00
6200;BME280;3133;43.214;27.906;2023-04-10T11:21:30;100633.69;;;13.15;100.00
6200;BME280;3133;43.214;27.906;2023-04-10T11:24:02;100628.44;;;13.18;100.00
6200;BME280;3133;43.214;27.906;2023-04-10T11:26:38;100524.22;;;12.60;100.00
6200;BME280;3133;43.214;27.906;2023-04-10T11:29:31;100630.25;;;13.11;100.00
6200;BME280;3133;43.214;27.906;2023-04-10T11:31:57;100612.09;;;12.88;100.00
6200;BME280;3133;43.214;27.906;2023-04-10T11:34:26;100505.31;;;12.23;100.00
6200;BME280;3133;43.214;27.906;2023-04-10T11:36:53;100631.28;;;12.86;100.00
6200;BME280;3133;43.214;27.906;2023-04-10T11:39:20;100546.22;;;12.30;100.00
6200;BME280;3133;43.214;27.906;2023-04-10T11:41:48;100627.91;;;12.67;100.00
6200;BME280;3133;43.214;27.906;2023-04-10T11:44:17;100630.66;;;12.49;100.00
6200;BME280;3133;43.214;27.906;2023-04-10T11:46:46;100626.31;;;12.44;100.00
6200;BME280;3133;43.214;27.906;2023-04-10T11:49:31;100449.16;;;11.39;100.00
6200;BME280;3133;43.214;27.906;2023-04-10T11:52:00;100624.63;;;12.35;100.00
6200;BME280;3133;43.214;27.906;2023-04-10T11:54:28;100483.91;;;11.56;100.00
6200;BME280;3133;43.214;27.906;2023-04-10T11:57:01;100620.22;;;12.42;100.00
6200;BME280;3133;43.214;27.906;2023-04-10T11:59:29;100619.31;;;12.52;100.00
6200;BME280;3133;43.214;27.906;2023-04-10T12:02:05;100613.25;;;12.45;100.00
6200;BME280;3133;43.214;27.906;2023-04-10T12:04:34;100614.06;;;12.53;100.00
6200;BME280;3133;43.214;27.906;2023-04-10T12:07:02;100541.13;;;12.09;100.00
6200;BME280;3133;43.214;27.906;2023-04-10T12:09:29;100608.84;;;12.52;100.00
6200;BME280;3133;43.214;27.906;2023-04-10T12:11:58;100598.31;;;12.62;100.00
6200;BME280;3133;43.214;27.906;2023-04-10T12:14:30;100532.34;;;12.18;100.00
6200;BME280;3133;43.214;27.906;2023-04-10T12:16:59;100607.94;;;12.57;100.00
6200;BME280;3133;43.214;27.906;2023-04-10T12:19:27;100544.53;;;12.20;100.00
6200;BME280;3133;43.214;27.906;2023-04-10T12:21:56;100584.50;;;12.42;100.00
6200;BME280;3133;43.214;27.906;2023-04-10T12:24:45;100585.31;;;12.50;100.00
6200;BME280;3133;43.214;27.906;2023-04-10T12:27:15;100583.47;;;12.63;100.00
6200;BME280;3133;43.214;27.906;2023-04-10T12:29:43;100563.50;;;12.51;100.00
6200;BME280;3133;43.214;27.906;2023-04-10T12:32:10;100570.38;;;12.63;100.00
6200;BME280;3133;43.214;27.906;2023-04-10T12:34:37;100553.88;;;12.58;100.00
6200;BME280;3133;43.214;27.906;2023-04-10T12:37:04;100520.84;;;12.42;100.00
6200;BME280;3133;43.214;27.906;2023-04-10T12:39:31;100551.97;;;12.76;100.00
6200;BME280;3133;43.214;27.906;2023-04-10T12:42:12;100534.56;;;12.69;100.00
6200;BME280;3133;43.214;27.906;2023-04-10T12:44:56;100504.97;;;12.66;100.00
6200;BME280;3133;43.214;27.906;2023-04-10T12:47:24;100563.09;;;13.05;100.00
6200;BME280;3133;43.214;27.906;2023-04-10T12:50:07;100554.34;;;13.10;100.00
6200;BME280;3133;43.214;27.906;2023-04-10T12:52:35;100503.03;;;12.84;100.00
6200;BME280;3133;43.214;27.906;2023-04-10T12:55:13;100496.09;;;12.80;100.00
6200;BME280;3133;43.214;27.906;2023-04-10T12:57:43;100422.38;;;12.41;100.00
6200;BME280;3133;43.214;27.906;2023-04-10T13:00:11;100548.09;;;13.20;100.00
6200;BME280;3133;43.214;27.906;2023-04-10T13:02:41;100515.00;;;13.16;100.00
6200;BME280;3133;43.214;27.906;2023-04-10T13:05:08;100540.97;;;13.34;100.00
6200;BME280;3133;43.214;27.906;2023-04-10T13:07:35;100542.81;;;13.24;100.00